Time;durP1;ratioP1;P1;durP2;ratioP2;P2;SDS_P1;SDS_P2;PMS_P1;PMS_P2;Temp;Humidity;BMP_temperature;BMP_pressure;BME280_temperature;BME280_humidity;BME280_pressure;Samples;Min_cycle;Max_cycle;Signal;HPM_P1;HPM_P2
2022/04/09 00:00:48;;;;;;;10.85;1.75;;;3.80;99.90;;;;;;5073997;28;20036;-55
2022/04/09 00:03:14;;;;;;;13.70;1.70;;;;;;;;;;5073236;28;20036;-52
2022/04/09 00:05:40;;;;;;;8.77;1.50;;;;;;;;;;5039014;28;20051;-56
2022/04/09 00:08:08;;;;;;;10.60;2.10;;;4.20;99.90;;;;;;5074599;28;20052;-54
2022/04/09 00:10:35;;;;;;;16.75;2.80;;;3.80;99.90;;;;;;5073744;28;20044;-53
2022/04/09 00:13:01;;;;;;;9.15;2.67;;;;;;;;;;5073452;28;20055;-52
2022/04/09 00:15:27;;;;;;;4.53;1.20;;;3.90;99.90;;;;;;5072601;28;20746;-50
2022/04/09 00:17:54;;;;;;;14.18;3.40;;;3.90;99.90;;;;;;5073227;28;20696;-56
2022/04/09 00:20:20;;;;;;;9.75;1.30;;;;;;;;;;5073632;28;20040;-53
2022/04/09 00:22:46;;;;;;;9.02;1.50;;;;;;;;;;5073705;28;20754;-55
2022/04/09 00:25:21;;;;;;;8.65;1.38;;;4.20;99.90;;;;;;5072610;28;20048;-54
2022/04/09 00:27:47;;;;;;;10.43;1.73;;;;;;;;;;5073558;28;20101;-55
2022/04/09 00:30:13;;;;;;;8.38;1.40;;;;;;;;;;5073518;28;20488;-53
2022/04/09 00:32:39;;;;;;;6.20;1.17;;;;;;;;;;5073588;28;20039;-56
2022/04/09 00:35:06;;;;;;;6.90;1.17;;;;;;;;;;5073575;28;20131;-55
2022/04/09 00:37:33;;;;;;;6.57;1.38;;;4.20;99.90;;;;;;5073370;28;20043;-53
2022/04/09 00:39:59;;;;;;;1.42;0.63;;;;;;;;;;5073529;28;20118;-54
2022/04/09 00:42:27;;;;;;;3.55;0.75;;;4.00;99.90;;;;;;5073138;28;20293;-55
2022/04/09 00:44:55;;;;;;;2.30;0.75;;;;;;;;;;5073063;28;20496;-56
2022/04/09 00:47:21;;;;;;;6.00;1.38;;;;;;;;;;5073603;28;20119;-56
2022/04/09 00:49:47;;;;;;;4.00;0.88;;;;;;;;;;5055367;28;20055;-56
2022/04/09 00:52:14;;;;;;;6.40;1.27;;;3.90;99.90;;;;;;5074030;28;20036;-55
2022/04/09 00:54:42;;;;;;;5.72;1.08;;;3.80;99.90;;;;;;5074122;28;20044;-55
2022/04/09 00:57:10;;;;;;;6.82;1.40;;;3.70;99.90;;;;;;5073064;28;20145;-53
2022/04/09 00:59:41;;;;;;;6.05;1.02;;;3.50;99.90;;;;;;5073919;28;20036;-54
2022/04/09 01:02:07;;;;;;;3.25;0.80;;;;;;;;;;5074780;28;20056;-54
2022/04/09 01:04:34;;;;;;;5.10;1.00;;;3.50;99.90;;;;;;5073603;28;20142;-55
2022/04/09 01:07:02;;;;;;;6.03;1.10;;;3.50;99.90;;;;;;5074205;28;20071;-56
2022/04/09 01:09:28;;;;;;;5.30;1.02;;;;;;;;;;5074534;28;20292;-55
2022/04/09 01:11:56;;;;;;;7.65;1.17;;;3.40;99.90;;;;;;5073607;28;21016;-55
2022/04/09 01:14:22;;;;;;;6.78;1.10;;;;;;;;;;5073324;28;20051;-56
2022/04/09 01:16:49;;;;;;;7.80;1.13;;;;;;;;;;5074102;28;20040;-54
2022/04/09 01:19:15;;;;;;;6.75;1.40;;;;;;;;;;5074126;28;20071;-54
2022/04/09 01:21:41;;;;;;;11.70;1.90;;;;;;;;;;5073393;28;20040;-54
2022/04/09 01:24:08;;;;;;;9.80;2.65;;;3.20;99.90;;;;;;5072119;28;20059;-53
2022/04/09 01:26:35;;;;;;;7.68;1.40;;;;;;;;;;5072421;28;20738;-53
2022/04/09 01:29:01;;;;;;;6.43;1.50;;;;;;;;;;5071826;28;20059;-56
2022/04/09 01:31:28;;;;;;;12.32;1.90;;;3.20;99.90;;;;;;5072870;28;20055;-56
2022/04/09 01:33:54;;;;;;;9.70;1.70;;;;;;;;;;5072400;28;20051;-55
2022/04/09 01:36:20;;;;;;;11.50;1.50;;;;;;;;;;5071201;28;20476;-54
2022/04/09 01:38:48;;;;;;;8.07;1.98;;;3.40;99.90;;;;;;5072508;28;20071;-55
2022/04/09 01:41:14;;;;;;;9.13;1.25;;;;;;;;;;5072162;28;20445;-56
2022/04/09 01:43:41;;;;;;;9.65;1.65;;;;;;;;;;5071763;28;20048;-54
2022/04/09 01:46:09;;;;;;;8.15;2.00;;;3.50;99.90;;;;;;5071824;28;20075;-55
2022/04/09 01:48:35;;;;;;;8.65;1.45;;;;;;;;;;5071743;28;20036;-50
2022/04/09 01:51:01;;;;;;;7.90;1.52;;;;;;;;;;5071923;28;20626;-50
2022/04/09 01:53:27;;;;;;;6.70;1.20;;;;;;;;;;5072783;28;20543;-55
2022/04/09 01:55:54;;;;;;;12.48;2.03;;;3.10;99.90;;;;;;5070304;28;20518;-54
2022/04/09 01:58:20;;;;;;;8.18;1.35;;;;;;;;;;5070708;28;20039;-55
2022/04/09 02:00:47;;;;;;;13.32;2.75;;;;;;;;;;5073136;28;20132;-50
2022/04/09 02:03:13;;;;;;;11.98;2.08;;;;;;;;;;5070750;28;20039;-55
2022/04/09 02:05:39;;;;;;;11.48;1.60;;;;;;;;;;5071761;28;20063;-52
2022/04/09 02:08:05;;;;;;;12.85;2.40;;;;;;;;;;5071367;28;20043;-55
2022/04/09 02:10:32;;;;;;;10.27;1.60;;;;;;;;;;5070432;28;20328;-54
2022/04/09 02:12:59;;;;;;;15.73;2.70;;;;;;;;;;5071770;28;20163;-54
2022/04/09 02:15:25;;;;;;;6.85;1.50;;;;;;;;;;5069234;28;20048;-55
2022/04/09 02:17:52;;;;;;;10.68;1.55;;;3.20;99.90;;;;;;5068425;28;20654;-50
2022/04/09 02:20:20;;;;;;;11.18;1.45;;;3.00;99.90;;;;;;5070877;28;20083;-54
2022/04/09 02:22:46;;;;;;;12.45;1.52;;;;;;;;;;5038235;28;20052;-51
2022/04/09 02:25:15;;;;;;;24.50;2.78;;;3.20;99.90;;;;;;5072160;28;20044;-54
2022/04/09 02:27:41;;;;;;;9.30;1.25;;;;;;;;;;5072731;28;20071;-52
2022/04/09 02:30:09;;;;;;;15.52;1.55;;;2.90;99.90;;;;;;5072804;28;20174;-54
2022/04/09 02:32:48;;;;;;;8.65;1.73;;;3.00;99.90;;;;;;5072934;28;20036;-54
2022/04/09 02:35:15;;;;;;;7.88;1.40;;;;;;;;;;5071669;28;20048;-51
2022/04/09 02:37:41;;;;;;;8.30;1.52;;;;;;;;;;5073133;28;20123;-51
2022/04/09 02:40:07;;;;;;;6.32;1.55;;;4.10;99.90;;;;;;5071993;28;20123;-50
2022/04/09 02:42:37;;;;;;;9.50;2.13;;;2.90;99.90;;;;;;5052518;28;20109;-55
2022/04/09 02:45:04;;;;;;;13.23;1.85;;;4.20;99.90;;;;;;5070006;28;20044;-51
2022/04/09 02:47:30;;;;;;;14.38;2.38;;;;;;;;;;5071194;28;20035;-53
2022/04/09 02:49:56;;;;;;;19.45;2.65;;;;;;;;;;5071392;28;20281;-52
2022/04/09 02:52:22;;;;;;;10.00;1.30;;;;;;;;;;5070380;28;20066;-51
2022/04/09 02:54:48;;;;;;;7.57;1.75;;;;;;;;;;5071053;28;20040;-52
2022/04/09 02:57:14;;;;;;;9.88;1.58;;;;;;;;;;5070248;28;20054;-54
2022/04/09 02:59:40;;;;;;;12.77;2.00;;;;;;;;;;5071004;28;20504;-51
2022/04/09 03:02:07;;;;;;;9.40;1.42;;;;;;;;;;5070712;28;20054;-51
2022/04/09 03:04:33;;;;;;;9.75;1.50;;;;;;;;;;5070348;28;20126;-51
2022/04/09 03:06:59;;;;;;;9.98;1.83;;;;;;;;;;5071437;28;20047;-52
2022/04/09 03:09:25;;;;;;;12.88;1.70;;;;;;;;;;5070737;28;20089;-51
2022/04/09 03:11:51;;;;;;;10.93;1.40;;;;;;;;;;5069413;28;20412;-50
2022/04/09 03:14:17;;;;;;;14.27;2.40;;;;;;;;;;5070207;28;20228;-55
2022/04/09 03:16:43;;;;;;;11.98;1.80;;;;;;;;;;5069166;28;20106;-52
2022/04/09 03:19:09;;;;;;;14.10;1.77;;;;;;;;;;5070970;28;20039;-53
2022/04/09 03:21:37;;;;;;;11.20;2.58;;;3.20;99.90;;;;;;5071142;28;20036;-52
2022/04/09 03:24:03;;;;;;;13.65;1.90;;;;;;;;;;5072134;28;21043;-54
2022/04/09 03:26:29;;;;;;;10.63;1.48;;;;;;;;;;5070508;28;20052;-52
2022/04/09 03:28:58;;;;;;;13.70;2.38;;;3.00;99.90;;;;;;5070630;28;20043;-52
2022/04/09 03:31:24;;;;;;;8.70;1.40;;;;;;;;;;5069612;28;20109;-55
2022/04/09 03:33:52;;;;;;;9.35;1.80;;;;;;;;;;5075583;28;20040;-53
2022/04/09 03:36:18;;;;;;;7.82;1.45;;;;;;;;;;5075683;28;20503;-54
2022/04/09 03:38:44;;;;;;;12.02;1.58;;;;;;;;;;5057230;28;20040;-55
2022/04/09 03:41:10;;;;;;;6.97;1.13;;;;;;;;;;5074088;28;20513;-55
2022/04/09 03:43:36;;;;;;;10.38;1.25;;;;;;;;;;5075087;28;20715;-55
2022/04/09 03:46:04;;;;;;;11.43;1.58;;;3.20;99.90;;;;;;5076527;28;20040;-54
2022/04/09 03:48:30;;;;;;;9.80;1.10;;;;;;;;;;5074890;28;20059;-56
2022/04/09 03:50:56;;;;;;;7.82;1.45;;;;;;;;;;5074500;28;20073;-53
2022/04/09 03:53:23;;;;;;;8.43;1.75;;;2.80;99.90;;;;;;5074654;28;20040;-53
2022/04/09 03:55:50;;;;;;;7.78;1.10;;;;;;;;;;5074317;28;21881;-54
2022/04/09 03:58:16;;;;;;;6.65;1.63;;;;;;;;;;5074084;28;20115;-55
2022/04/09 04:00:42;;;;;;;8.75;1.20;;;;;;;;;;5073922;28;20530;-54
2022/04/09 04:03:09;;;;;;;7.50;1.30;;;;;;;;;;5074101;28;20661;-54
2022/04/09 04:05:36;;;;;;;8.18;1.42;;;;;;;;;;5073330;28;20523;-54
2022/04/09 04:08:06;;;;;;;8.93;1.25;;;2.90;99.90;;;;;;5075291;28;20086;-56
2022/04/09 04:10:36;;;;;;;4.20;1.10;;;2.90;99.90;;;;;;5074461;28;20048;-55
2022/04/09 04:13:02;;;;;;;7.82;1.02;;;;;;;;;;5074741;28;20675;-55
2022/04/09 04:15:28;;;;;;;6.80;1.15;;;2.90;99.90;;;;;;5073629;28;20717;-54
2022/04/09 04:17:55;;;;;;;10.18;1.33;;;3.00;99.90;;;;;;5073395;28;20048;-53
2022/04/09 04:20:23;;;;;;;9.35;1.73;;;;;;;;;;5073488;28;20573;-55
2022/04/09 04:22:51;;;;;;;5.80;1.55;;;;;;;;;;5074348;28;20040;-56
2022/04/09 04:25:17;;;;;;;8.00;1.75;;;;;;;;;;5073283;28;20431;-56
2022/04/09 04:27:48;;;;;;;7.20;1.27;;;2.90;99.90;;;;;;5073426;28;20032;-54
2022/04/09 04:30:15;;;;;;;7.25;1.17;;;3.10;99.90;;;;;;5073139;28;20040;-54
2022/04/09 04:32:42;;;;;;;9.32;1.20;;;;;;;;;;5073529;28;20750;-51
2022/04/09 04:35:08;;;;;;;13.48;1.63;;;3.00;99.90;;;;;;5073569;28;20169;-57
2022/04/09 04:37:42;;;;;;;10.65;1.30;;;3.00;99.90;;;;;;5073003;28;20050;-54
2022/04/09 04:40:11;;;;;;;9.32;1.48;;;3.00;99.90;;;;;;5074064;28;20035;-56
2022/04/09 04:42:37;;;;;;;11.25;1.20;;;;;;;;;;5073148;28;20051;-54
2022/04/09 04:45:06;;;;;;;10.10;1.50;;;4.40;99.90;;;;;;5055186;28;20048;-55
2022/04/09 04:47:32;;;;;;;7.38;1.00;;;;;;;;;;5072233;28;20047;-55
2022/04/09 04:50:04;;;;;;;10.63;2.95;;;3.10;99.90;;;;;;5074527;28;20162;-52
2022/04/09 04:52:30;;;;;;;8.87;1.23;;;;;;;;;;5037916;28;20052;-56
2022/04/09 04:54:56;;;;;;;7.13;1.10;;;;;;;;;;5076423;28;21301;-56
2022/04/09 04:57:22;;;;;;;8.45;0.85;;;;;;;;;;5074644;28;20098;-51
2022/04/09 04:59:49;;;;;;;6.95;1.30;;;2.90;99.90;;;;;;5073950;28;20672;-55
2022/04/09 05:02:15;;;;;;;8.82;1.08;;;;;;;;;;5074027;28;20077;-53
2022/04/09 05:04:41;;;;;;;8.73;1.30;;;;;;;;;;5073018;28;20240;-54
2022/04/09 05:07:09;;;;;;;11.57;1.30;;;3.00;99.90;;;;;;5074002;28;20036;-54
2022/04/09 05:09:35;;;;;;;12.43;1.38;;;;;;;;;;5073374;28;20515;-52
2022/04/09 05:12:02;;;;;;;8.43;1.10;;;;;;;;;;5072938;28;20086;-55
2022/04/09 05:14:29;;;;;;;12.32;1.95;;;3.20;99.90;;;;;;5074166;28;20504;-53
2022/04/09 05:16:57;;;;;;;8.48;1.40;;;;;;;;;;5073807;28;20506;-53
2022/04/09 05:19:23;;;;;;;12.23;1.40;;;;;;;;;;5072369;28;20047;-51
2022/04/09 05:21:49;;;;;;;15.20;2.10;;;;;;;;;;5071589;28;20044;-53
2022/04/09 05:24:18;;;;;;;13.15;1.70;;;3.30;99.90;;;;;;5073375;28;20075;-50
2022/04/09 05:26:44;;;;;;;12.32;1.75;;;;;;;;;;5072502;28;20043;-54
2022/04/09 05:29:10;;;;;;;13.07;1.98;;;;;;;;;;5071359;28;20149;-53
2022/04/09 05:31:36;;;;;;;12.15;1.65;;;;;;;;;;5070750;28;20040;-53
2022/04/09 05:34:02;;;;;;;15.57;3.00;;;;;;;;;;5072151;28;20036;-51
2022/04/09 05:36:28;;;;;;;13.80;1.40;;;;;;;;;;5072490;28;20036;-53
2022/04/09 05:38:54;;;;;;;7.43;1.38;;;;;;;;;;5071983;28;20044;-52
2022/04/09 05:41:21;;;;;;;13.63;2.72;;;;;;;;;;5071374;28;20051;-53
2022/04/09 05:43:47;;;;;;;10.40;1.52;;;;;;;;;;5071461;28;20048;-52
2022/04/09 05:46:13;;;;;;;11.60;1.90;;;4.70;99.90;;;;;;5071675;28;20512;-54
2022/04/09 05:48:39;;;;;;;14.38;1.90;;;;;;;;;;5071762;28;20087;-54
2022/04/09 05:51:05;;;;;;;10.07;1.55;;;;;;;;;;5071037;28;20071;-55
2022/04/09 05:53:31;;;;;;;12.20;1.90;;;;;;;;;;5070973;28;20039;-55
2022/04/09 05:55:57;;;;;;;14.60;3.15;;;;;;;;;;5069069;28;20075;-52
2022/04/09 05:58:23;;;;;;;11.40;1.85;;;;;;;;;;5069813;28;20523;-52
2022/04/09 06:00:50;;;;;;;11.48;1.77;;;4.30;99.90;;;;;;5071733;28;20043;-55
2022/04/09 06:03:17;;;;;;;12.43;2.42;;;;;;;;;;5072440;28;20609;-54
2022/04/09 06:05:43;;;;;;;17.70;2.40;;;;;;;;;;5070088;28;20044;-55
2022/04/09 06:08:11;;;;;;;9.43;2.08;;;4.20;99.90;;;;;;5071175;28;20375;-51
2022/04/09 06:10:37;;;;;;;12.93;2.25;;;;;;;;;;5070923;28;20056;-55
2022/04/09 06:13:03;;;;;;;11.15;2.35;;;;;;;;;;5069820;28;20653;-54
2022/04/09 06:15:31;;;;;;;20.10;2.10;;;4.60;99.90;;;;;;5070332;28;20043;-54
2022/04/09 06:17:57;;;;;;;13.55;2.03;;;;;;;;;;5071760;28;20032;-56
2022/04/09 06:20:23;;;;;;;16.90;2.35;;;7.20;99.90;;;;;;5072582;28;20047;-57
2022/04/09 06:22:49;;;;;;;12.85;2.85;;;8.30;99.90;;;;;;5070801;28;20040;-56
2022/04/09 06:25:14;;;;;;;10.43;2.17;;;8.80;99.90;;;;;;5072762;28;20115;-55
2022/04/09 06:27:41;;;;;;;12.07;2.20;;;10.40;99.90;;;;;;5068579;28;20047;-56
2022/04/09 06:30:09;;;;;;;11.75;2.08;;;11.40;99.90;;;;;;5072341;28;20507;-56
2022/04/09 06:32:35;;;;;;;12.27;2.72;;;10.60;99.90;;;;;;5036960;28;20457;-55
2022/04/09 06:35:03;;;;;;;11.90;2.05;;;10.30;99.90;;;;;;5072093;28;20125;-55
2022/04/09 06:37:29;;;;;;;15.90;2.20;;;10.50;99.90;;;;;;5072300;28;20082;-56
2022/04/09 06:39:56;;;;;;;18.85;2.45;;;10.50;99.90;;;;;;5071132;28;20043;-56
2022/04/09 06:42:21;;;;;;;9.27;2.28;;;12.60;99.90;;;;;;5069776;28;20504;-58
2022/04/09 06:44:47;;;;;;;10.43;1.88;;;12.80;99.90;;;;;;5070295;28;20050;-57
2022/04/09 06:47:12;;;;;;;8.60;1.48;;;14.10;99.90;;;;;;5069974;28;20039;-57
2022/04/09 06:49:38;;;;;;;8.35;1.73;;;14.20;99.90;;;;;;5069881;28;20384;-56
2022/04/09 06:52:05;;;;;;;8.20;2.30;;;14.80;99.90;;;;;;5070531;28;20358;-57
2022/04/09 06:54:31;;;;;;;8.98;1.58;;;16.90;99.90;;;;;;5072082;28;20048;-58
2022/04/09 06:56:57;;;;;;;6.90;1.20;;;15.00;99.90;;;;;;5069593;28;20078;-57
2022/04/09 06:59:23;;;;;;;8.80;1.70;;;15.00;99.90;;;;;;5069859;28;20074;-57
2022/04/09 07:01:48;;;;;;;9.25;1.98;;;14.70;99.90;;;;;;5070151;28;20040;-57
2022/04/09 07:04:15;;;;;;;6.95;1.48;;;14.70;99.90;;;;;;5069042;28;20050;-57
2022/04/09 07:06:41;;;;;;;10.82;2.00;;;14.50;99.90;;;;;;5070644;28;20047;-57
2022/04/09 07:09:06;;;;;;;8.90;1.77;;;13.50;99.90;;;;;;5069897;28;20044;-57
2022/04/09 07:11:36;;;;;;;6.63;1.50;;;12.40;99.90;;;;;;5068789;28;20075;-57
2022/04/09 07:14:01;;;;;;;10.07;1.75;;;11.70;99.90;;;;;;5069627;28;20040;-57
2022/04/09 07:16:27;;;;;;;7.07;1.20;;;11.00;99.90;;;;;;5071348;28;20040;-57
2022/04/09 07:18:53;;;;;;;6.28;1.10;;;11.80;99.90;;;;;;5069699;28;20039;-57
2022/04/09 07:21:20;;;;;;;6.78;1.33;;;11.40;99.90;;;;;;5069427;28;20040;-57
2022/04/09 07:23:45;;;;;;;8.38;1.33;;;11.60;99.90;;;;;;5070691;28;20606;-57
2022/04/09 07:26:14;;;;;;;6.30;1.13;;;12.20;99.90;;;;;;5071545;28;20056;-57
2022/04/09 07:28:40;;;;;;;12.82;1.90;;;12.80;99.90;;;;;;5051039;28;20504;-53
2022/04/09 07:31:06;;;;;;;11.32;1.63;;;13.60;99.90;;;;;;5068790;28;20044;-54
2022/04/09 07:33:31;;;;;;;11.40;1.83;;;14.10;99.90;;;;;;5068814;28;20036;-55
2022/04/09 07:35:57;;;;;;;8.90;1.77;;;13.40;99.90;;;;;;5070330;28;20149;-56
2022/04/09 07:38:23;;;;;;;11.27;2.00;;;12.30;99.90;;;;;;5069958;28;20051;-55
2022/04/09 07:40:51;;;;;;;9.95;1.77;;;11.70;99.90;;;;;;5069307;28;20044;-55
2022/04/09 07:43:17;;;;;;;8.52;1.30;;;11.50;99.90;;;;;;5069802;28;20585;-55
2022/04/09 07:45:42;;;;;;;13.30;1.92;;;11.60;99.90;;;;;;5072633;28;20044;-55
2022/04/09 07:48:11;;;;;;;7.97;2.45;;;11.80;99.90;;;;;;5070394;28;20051;-55
2022/04/09 07:50:36;;;;;;;11.65;2.50;;;11.50;99.90;;;;;;5072207;28;20568;-56
2022/04/09 07:53:02;;;;;;;11.60;1.90;;;11.20;99.90;;;;;;5071401;28;20032;-56
2022/04/09 07:55:30;;;;;;;9.77;1.75;;;10.90;99.90;;;;;;5073288;28;20044;-56
2022/04/09 07:57:55;;;;;;;10.32;2.15;;;11.90;99.90;;;;;;5053077;28;20044;-53
2022/04/09 08:00:22;;;;;;;12.43;2.42;;;9.50;99.90;;;;;;5071318;28;20488;-55
2022/04/09 08:02:48;;;;;;;10.85;2.03;;;9.30;99.90;;;;;;5071475;28;20036;-56
2022/04/09 08:05:15;;;;;;;12.27;2.35;;;9.10;99.90;;;;;;5069594;28;20105;-56
2022/04/09 08:07:41;;;;;;;14.07;2.17;;;9.80;99.90;;;;;;5069668;28;20264;-55
2022/04/09 08:10:08;;;;;;;8.73;1.55;;;9.60;99.90;;;;;;5068331;28;20400;-55
2022/04/09 08:12:34;;;;;;;7.68;2.42;;;9.00;99.90;;;;;;5069870;28;20055;-56
2022/04/09 08:15:00;;;;;;;10.35;1.98;;;9.00;99.90;;;;;;5071475;28;20040;-56
2022/04/09 08:17:28;;;;;;;10.82;1.48;;;9.00;99.90;;;;;;5069287;28;20032;-54
2022/04/09 08:19:55;;;;;;;9.35;2.05;;;9.80;99.90;;;;;;5072243;28;20687;-55
2022/04/09 08:22:22;;;;;;;8.77;1.70;;;8.60;99.90;;;;;;5073451;28;20078;-56
2022/04/09 08:24:48;;;;;;;14.15;2.70;;;8.60;99.90;;;;;;5075121;28;20051;-52
2022/04/09 08:27:14;;;;;;;11.05;2.47;;;8.80;99.90;;;;;;5074405;28;20381;-55
2022/04/09 08:29:42;;;;;;;13.48;2.85;;;9.10;99.90;;;;;;5073517;28;20074;-54
2022/04/09 08:32:08;;;;;;;10.75;2.10;;;9.10;99.90;;;;;;5054984;28;20593;-54
2022/04/09 08:34:35;;;;;;;10.13;1.92;;;9.40;99.90;;;;;;5073620;28;20047;-56
2022/04/09 08:37:02;;;;;;;9.38;1.65;;;9.30;99.90;;;;;;5073342;28;20036;-55
2022/04/09 08:39:28;;;;;;;12.88;2.10;;;9.20;99.90;;;;;;5072804;28;20043;-55
2022/04/09 08:41:55;;;;;;;11.77;1.77;;;9.50;99.90;;;;;;5073646;28;20031;-56
2022/04/09 08:44:23;;;;;;;9.50;2.10;;;9.70;99.90;;;;;;5055446;28;20028;-53
2022/04/09 08:46:49;;;;;;;14.55;2.03;;;11.00;99.90;;;;;;5071865;28;20262;-52
2022/04/09 08:49:15;;;;;;;16.80;3.35;;;10.60;99.90;;;;;;5072710;28;20047;-56
2022/04/09 08:51:41;;;;;;;11.93;3.33;;;9.90;99.90;;;;;;5073049;28;20035;-52
2022/04/09 08:54:08;;;;;;;14.70;2.50;;;9.70;99.90;;;;;;5073642;28;20215;-52
2022/04/09 08:56:35;;;;;;;15.38;2.53;;;8.40;99.90;;;;;;5072907;28;20040;-52
2022/04/09 08:59:01;;;;;;;9.90;2.20;;;8.40;99.90;;;;;;5072499;28;20050;-49
2022/04/09 09:01:27;;;;;;;15.60;1.95;;;8.40;99.90;;;;;;5073759;28;20087;-50
2022/04/09 09:03:54;;;;;;;10.57;1.52;;;8.40;99.90;;;;;;5074344;28;20111;-52
2022/04/09 09:06:27;;;;;;;10.95;1.48;;;8.40;99.90;;;;;;5072996;28;20044;-48
2022/04/09 09:08:54;;;;;;;13.48;1.80;;;8.20;99.90;;;;;;5073558;28;20039;-51
2022/04/09 09:11:20;;;;;;;10.57;1.67;;;7.70;99.90;;;;;;5072168;28;20065;-52
2022/04/09 09:13:52;;;;;;;7.38;1.63;;;7.60;99.90;;;;;;5056287;28;20075;-52
2022/04/09 09:16:30;;;;;;;10.98;2.28;;;7.30;99.90;;;;;;5072583;28;20032;-51
2022/04/09 09:19:03;;;;;;;15.07;3.03;;;8.00;99.90;;;;;;5072094;28;20436;-50
2022/04/09 09:21:29;;;;;;;9.70;1.58;;;8.80;99.90;;;;;;5072414;28;20078;-50
2022/04/09 09:24:15;;;;;;;11.45;1.75;;;9.50;99.90;;;;;;5072107;28;20044;-53
2022/04/09 09:26:41;;;;;;;9.77;1.58;;;9.50;99.90;;;;;;5072285;28;20040;-51
2022/04/09 09:29:09;;;;;;;12.68;2.03;;;9.70;99.90;;;;;;5073048;28;20949;-49
2022/04/09 09:31:46;;;;;;;12.88;2.10;;;9.70;99.90;;;;;;5071854;28;20576;-54
2022/04/09 09:34:13;;;;;;;11.10;2.80;;;11.20;99.90;;;;;;5073330;28;20470;-53
2022/04/09 09:36:42;;;;;;;11.02;2.05;;;10.90;99.90;;;;;;5071810;28;20040;-51
2022/04/09 09:39:13;;;;;;;12.57;2.70;;;10.40;99.90;;;;;;5071601;28;20238;-51
2022/04/09 09:41:55;;;;;;;13.37;2.27;;;9.70;99.90;;;;;;5071983;28;20297;-51
2022/04/09 09:44:34;;;;;;;7.78;1.58;;;9.10;99.90;;;;;;5070652;28;20364;-53
2022/04/09 09:47:08;;;;;;;8.90;1.60;;;8.70;99.90;;;;;;5053044;28;20331;-54
2022/04/09 09:49:53;;;;;;;6.20;2.15;;;8.50;99.90;;;;;;5072301;28;20122;-50
2022/04/09 09:52:29;;;;;;;2.13;0.63;;;8.60;99.90;;;;;;5071787;28;20036;-51
2022/04/09 09:55:00;;;;;;;4.55;0.88;;;8.80;99.90;;;;;;5073430;28;20143;-50
2022/04/09 09:57:28;;;;;;;3.92;0.63;;;8.90;99.90;;;;;;5073354;28;20129;-49
2022/04/09 09:59:59;;;;;;;4.82;0.60;;;9.20;99.90;;;;;;5071192;28;20036;-49
2022/04/09 10:02:26;;;;;;;6.10;0.90;;;9.30;99.90;;;;;;5053980;28;20032;-52
2022/04/09 10:04:52;;;;;;;5.28;0.90;;;9.40;99.90;;;;;;5071373;28;20040;-50
2022/04/09 10:07:20;;;;;;;4.32;0.75;;;9.40;99.90;;;;;;5071995;28;20093;-54
2022/04/09 10:09:50;;;;;;;4.85;0.88;;;9.60;99.90;;;;;;5071487;28;20028;-54
2022/04/09 10:12:22;;;;;;;6.68;2.10;;;9.60;99.90;;;;;;5072495;28;21269;-52
2022/04/09 10:14:57;;;;;;;;;;;9.90;99.90;;;;;;5073928;28;20048;-53
2022/04/09 10:17:25;;;;;;;7.07;1.27;;;9.70;99.90;;;;;;5073043;28;19923;-53
2022/04/09 10:20:02;;;;;;;3.72;0.95;;;9.70;99.90;;;;;;5072775;28;20028;-53
2022/04/09 10:22:38;;;;;;;5.22;1.05;;;9.70;99.90;;;;;;5072586;28;20552;-50
2022/04/09 10:25:05;;;;;;;4.78;0.80;;;9.90;99.90;;;;;;5073304;28;20056;-55
2022/04/09 10:27:44;;;;;;;8.55;1.08;;;9.80;99.90;;;;;;5073556;28;20036;-53
2022/04/09 10:30:16;;;;;;;5.25;0.80;;;9.80;99.90;;;;;;5072518;28;20147;-50
2022/04/09 10:32:55;;;;;;;6.28;1.10;;;10.20;99.90;;;;;;5072274;28;20527;-55
2022/04/09 10:35:40;;;;;;;9.10;1.05;;;9.60;99.90;;;;;;5054049;28;20255;-52
2022/04/09 10:40:55;;;;;;;8.02;1.50;;;9.70;99.90;;;;;;5071519;28;20621;-52
2022/04/09 10:43:24;;;;;;;6.85;1.00;;;9.30;99.90;;;;;;5008912;28;20041;-52
2022/04/09 10:46:02;;;;;;;5.95;1.20;;;9.50;99.90;;;;;;5009373;28;20053;-54
2022/04/09 10:48:33;;;;;;;11.15;2.22;;;9.50;99.90;;;;;;4992490;28;20078;-51
2022/04/09 10:51:05;;;;;;;7.45;1.25;;;9.70;99.90;;;;;;5010123;28;20072;-53
2022/04/09 10:53:32;;;;;;;12.00;1.42;;;9.80;99.90;;;;;;5008291;28;20034;-51
2022/04/09 10:56:20;;;;;;;9.93;1.25;;;10.20;99.90;;;;;;5010698;28;20077;-55
2022/04/09 10:59:13;;;;;;;8.40;2.13;;;9.50;99.90;;;;;;5007563;28;20105;-51
2022/04/09 11:01:46;;;;;;;8.77;1.48;;;9.70;99.90;;;;;;5008229;28;20064;-54
2022/04/09 11:04:31;;;;;;;5.75;1.13;;;9.80;99.90;;;;;;5008559;28;20050;-54
2022/04/09 11:07:19;;;;;;;12.18;1.23;;;10.50;99.90;;;;;;5009022;28;20746;-54
2022/04/09 11:10:06;;;;;;;11.52;1.45;;;9.60;99.90;;;;;;4991513;28;20132;-56
2022/04/09 11:12:37;;;;;;;6.45;1.33;;;9.30;99.90;;;;;;4968510;28;20157;-55
2022/04/09 11:15:09;;;;;;;11.13;1.48;;;9.00;99.90;;;;;;4968561;28;20055;-53
2022/04/09 11:17:36;;;;;;;6.15;1.20;;;8.80;99.90;;;;;;4968693;28;20050;-55
2022/04/09 11:20:11;;;;;;;9.00;1.30;;;9.10;99.90;;;;;;4975781;28;20050;-51
2022/04/09 11:22:42;;;;;;;7.10;1.08;;;9.30;99.90;;;;;;4988994;28;20141;-55
2022/04/09 11:25:20;;;;;;;3.97;0.90;;;9.50;99.90;;;;;;4970051;28;20084;-54
2022/04/09 11:27:46;;;;;;;3.70;0.88;;;9.80;99.90;;;;;;4989120;28;20046;-53
2022/04/09 11:30:12;;;;;;;6.32;0.93;;;10.30;99.90;;;;;;4973437;28;20673;-54
2022/04/09 11:32:38;;;;;;;3.33;0.73;;;9.80;99.90;;;;;;4988723;28;20070;-56
2022/04/09 11:35:10;;;;;;;5.50;1.15;;;9.60;99.90;;;;;;4988233;28;20423;-54
2022/04/09 11:37:44;;;;;;;5.88;1.27;;;9.10;99.90;;;;;;4989296;28;20345;-54
2022/04/09 11:40:12;;;;;;;9.48;1.67;;;8.80;99.90;;;;;;4990454;28;20057;-54
2022/04/09 11:42:49;;;;;;;10.27;1.52;;;8.80;99.90;;;;;;4988234;28;20414;-54
2022/04/09 11:45:23;;;;;;;12.10;1.48;;;8.90;99.90;;;;;;4989904;28;20050;-54
2022/04/09 11:47:54;;;;;;;7.85;1.20;;;8.70;99.90;;;;;;4988160;28;20392;-53
2022/04/09 11:50:21;;;;;;;7.15;1.00;;;;;;;;;;5052503;28;20117;-54
2022/04/09 11:52:47;;;;;;;9.90;1.42;;;8.80;99.90;;;;;;5070171;28;20051;-50
2022/04/09 11:55:14;;;;;;;7.00;1.17;;;8.90;99.90;;;;;;5073442;28;20032;-54
2022/04/09 11:57:51;;;;;;;7.55;0.82;;;9.00;99.90;;;;;;5075278;28;20036;-55
2022/04/09 12:00:17;;;;;;;4.40;1.10;;;9.20;99.90;;;;;;5074090;28;20270;-52
2022/04/09 12:02:43;;;;;;;5.40;1.10;;;9.30;99.90;;;;;;5074115;28;20039;-55
2022/04/09 12:05:11;;;;;;;6.03;1.95;;;9.60;99.90;;;;;;5056629;28;20516;-55
2022/04/09 12:07:49;;;;;;;6.57;0.93;;;9.80;99.90;;;;;;5073837;28;20072;-53
2022/04/09 12:10:29;;;;;;;7.28;2.00;;;9.90;99.90;;;;;;5074159;28;20619;-55
2022/04/09 12:12:59;;;;;;;4.22;0.90;;;9.80;99.90;;;;;;5073814;28;20075;-56
2022/04/09 12:15:33;;;;;;;3.50;0.70;;;9.70;99.90;;;;;;5072966;28;20093;-54
2022/04/09 12:18:06;;;;;;;7.75;1.70;;;9.80;99.90;;;;;;5075363;28;20726;-53
2022/04/09 12:20:44;;;;;;;4.50;1.00;;;10.10;99.90;;;;;;5074266;28;20044;-56
2022/04/09 12:23:11;;;;;;;6.03;1.65;;;9.60;99.90;;;;;;5074305;28;20048;-54
2022/04/09 12:25:39;;;;;;;7.38;1.95;;;9.30;99.90;;;;;;5074126;28;20438;-55
2022/04/09 12:28:20;;;;;;;7.43;1.38;;;9.40;99.90;;;;;;5075113;28;20239;-51
2022/04/09 12:30:47;;;;;;;3.33;0.90;;;9.40;99.90;;;;;;5072552;28;20068;-54
2022/04/09 12:33:13;;;;;;;14.30;1.33;;;9.40;99.90;;;;;;5073170;28;20109;-56
2022/04/09 12:35:40;;;;;;;9.18;1.65;;;9.70;99.90;;;;;;5074230;28;20047;-55
2022/04/09 12:38:05;;;;;;;3.55;0.85;;;9.70;99.90;;;;;;5074572;28;20036;-56
2022/04/09 12:40:33;;;;;;;9.10;1.40;;;9.90;99.90;;;;;;5073586;28;20032;-57
2022/04/09 12:43:00;;;;;;;12.38;1.40;;;9.60;99.90;;;;;;5073057;28;20169;-57
2022/04/09 12:45:28;;;;;;;9.10;1.20;;;9.50;99.90;;;;;;5072685;28;20603;-57
2022/04/09 12:48:01;;;;;;;9.00;1.88;;;9.50;99.90;;;;;;5072978;28;20036;-54
2022/04/09 12:50:34;;;;;;;6.22;1.38;;;9.40;99.90;;;;;;5072721;28;20066;-54
2022/04/09 12:53:02;;;;;;;8.40;1.73;;;9.40;99.90;;;;;;5074641;28;20050;-57
2022/04/09 12:55:30;;;;;;;7.13;1.35;;;10.70;99.90;;;;;;5074975;28;20036;-57
2022/04/09 12:57:56;;;;;;;5.43;1.20;;;10.80;99.90;;;;;;5073958;28;20142;-54
2022/04/09 13:00:24;;;;;;;8.52;1.45;;;9.90;99.90;;;;;;5073777;28;20035;-55
2022/04/09 13:02:50;;;;;;;6.53;1.25;;;9.40;99.90;;;;;;5074623;28;20511;-53
2022/04/09 13:05:17;;;;;;;13.80;2.67;;;9.10;99.90;;;;;;5073430;28;20047;-56
2022/04/09 13:07:45;;;;;;;5.90;1.15;;;8.90;99.90;;;;;;5073463;28;20442;-55
2022/04/09 13:10:13;;;;;;;6.53;1.02;;;8.80;99.90;;;;;;5073820;28;20577;-52
2022/04/09 13:12:39;;;;;;;8.77;2.05;;;9.00;99.90;;;;;;5074240;28;20207;-56
2022/04/09 13:15:07;;;;;;;8.43;1.35;;;9.10;99.90;;;;;;5073267;28;20156;-55
2022/04/09 13:17:35;;;;;;;6.28;1.23;;;9.50;99.90;;;;;;5073440;28;20055;-55
2022/04/09 13:20:06;;;;;;;7.47;1.48;;;11.40;99.90;;;;;;5055125;28;20051;-53
2022/04/09 13:22:33;;;;;;;6.18;1.10;;;9.60;99.90;;;;;;5073491;28;20177;-55
2022/04/09 13:24:59;;;;;;;8.27;1.63;;;9.60;99.90;;;;;;5072941;28;20036;-56
2022/04/09 13:27:25;;;;;;;5.32;1.05;;;9.50;99.90;;;;;;5073550;28;20063;-53
2022/04/09 13:29:51;;;;;;;4.65;0.70;;;9.50;99.90;;;;;;5072813;28;20135;-54